sensor_id;sensor_type;location;lat;lon;timestamp;P1;durP1;ratioP1;P2;durP2;ratioP2
11439;SDS011;5776;51.814;4.510;2022-08-03T00:01:41;10.65;;;2.20;;
11439;SDS011;5776;51.814;4.510;2022-08-03T00:04:09;4.97;;;1.42;;
11439;SDS011;5776;51.814;4.510;2022-08-03T00:06:36;9.95;;;1.52;;
11439;SDS011;5776;51.814;4.510;2022-08-03T00:09:05;9.40;;;1.90;;
11439;SDS011;5776;51.814;4.510;2022-08-03T00:11:32;8.32;;;1.60;;
11439;SDS011;5776;51.814;4.510;2022-08-03T00:13:58;12.52;;;1.63;;
11439;SDS011;5776;51.814;4.510;2022-08-03T00:16:24;8.32;;;1.92;;
11439;SDS011;5776;51.814;4.510;2022-08-03T00:18:51;6.78;;;1.63;;
11439;SDS011;5776;51.814;4.510;2022-08-03T00:21:17;11.32;;;1.80;;
11439;SDS011;5776;51.814;4.510;2022-08-03T00:23:43;14.90;;;1.40;;
11439;SDS011;5776;51.814;4.510;2022-08-03T00:26:09;8.68;;;1.48;;
11439;SDS011;5776;51.814;4.510;2022-08-03T00:28:35;8.00;;;1.17;;
11439;SDS011;5776;51.814;4.510;2022-08-03T00:31:01;7.72;;;1.75;;
11439;SDS011;5776;51.814;4.510;2022-08-03T00:33:27;8.25;;;1.20;;
11439;SDS011;5776;51.814;4.510;2022-08-03T00:35:53;6.03;;;1.25;;
11439;SDS011;5776;51.814;4.510;2022-08-03T00:38:19;6.53;;;1.60;;
11439;SDS011;5776;51.814;4.510;2022-08-03T00:40:45;13.07;;;1.52;;
11439;SDS011;5776;51.814;4.510;2022-08-03T00:43:11;5.65;;;1.55;;
11439;SDS011;5776;51.814;4.510;2022-08-03T00:45:38;7.60;;;1.38;;
11439;SDS011;5776;51.814;4.510;2022-08-03T00:48:07;8.55;;;1.48;;
11439;SDS011;5776;51.814;4.510;2022-08-03T00:50:34;6.63;;;1.25;;
11439;SDS011;5776;51.814;4.510;2022-08-03T00:53:04;3.75;;;1.20;;
11439;SDS011;5776;51.814;4.510;2022-08-03T00:55:32;5.93;;;1.73;;
11439;SDS011;5776;51.814;4.510;2022-08-03T00:57:58;6.35;;;1.40;;
11439;SDS011;5776;51.814;4.510;2022-08-03T01:00:26;9.32;;;1.45;;
11439;SDS011;5776;51.814;4.510;2022-08-03T01:02:53;6.35;;;1.75;;
11439;SDS011;5776;51.814;4.510;2022-08-03T01:05:19;9.23;;;2.05;;
11439;SDS011;5776;51.814;4.510;2022-08-03T01:08:01;11.45;;;1.85;;
11439;SDS011;5776;51.814;4.510;2022-08-03T01:15:55;14.02;;;2.17;;
11439;SDS011;5776;51.814;4.510;2022-08-03T01:19:06;14.10;;;2.00;;
11439;SDS011;5776;51.814;4.510;2022-08-03T01:27:13;16.55;;;2.03;;
11439;SDS011;5776;51.814;4.510;2022-08-03T01:29:56;10.65;;;1.73;;
11439;SDS011;5776;51.814;4.510;2022-08-03T01:32:30;8.40;;;1.60;;
11439;SDS011;5776;51.814;4.510;2022-08-03T01:35:06;9.65;;;1.88;;
11439;SDS011;5776;51.814;4.510;2022-08-03T01:37:42;9.00;;;1.55;;
11439;SDS011;5776;51.814;4.510;2022-08-03T01:40:14;12.40;;;1.70;;
11439;SDS011;5776;51.814;4.510;2022-08-03T01:42:42;8.02;;;1.45;;
11439;SDS011;5776;51.814;4.510;2022-08-03T01:45:11;10.02;;;1.60;;
11439;SDS011;5776;51.814;4.510;2022-08-03T01:47:40;15.00;;;1.80;;
11439;SDS011;5776;51.814;4.510;2022-08-03T01:50:10;8.10;;;1.85;;
11439;SDS011;5776;51.814;4.510;2022-08-03T01:52:38;9.48;;;1.80;;
11439;SDS011;5776;51.814;4.510;2022-08-03T01:55:06;9.48;;;1.63;;
11439;SDS011;5776;51.814;4.510;2022-08-03T01:57:34;14.90;;;2.10;;
11439;SDS011;5776;51.814;4.510;2022-08-03T02:00:02;8.20;;;2.03;;
11439;SDS011;5776;51.814;4.510;2022-08-03T02:02:29;13.35;;;1.90;;
11439;SDS011;5776;51.814;4.510;2022-08-03T02:04:57;13.82;;;2.10;;
11439;SDS011;5776;51.814;4.510;2022-08-03T02:07:24;11.07;;;2.05;;
11439;SDS011;5776;51.814;4.510;2022-08-03T02:09:53;10.02;;;1.67;;
11439;SDS011;5776;51.814;4.510;2022-08-03T02:12:21;10.18;;;2.28;;
11439;SDS011;5776;51.814;4.510;2022-08-03T02:14:49;12.48;;;1.70;;
11439;SDS011;5776;51.814;4.510;2022-08-03T02:17:16;11.70;;;1.75;;
11439;SDS011;5776;51.814;4.510;2022-08-03T02:19:45;13.60;;;1.80;;
11439;SDS011;5776;51.814;4.510;2022-08-03T02:22:12;11.07;;;1.60;;
11439;SDS011;5776;51.814;4.510;2022-08-03T02:24:39;14.38;;;1.67;;
11439;SDS011;5776;51.814;4.510;2022-08-03T02:27:09;12.50;;;1.70;;
11439;SDS011;5776;51.814;4.510;2022-08-03T02:29:40;6.18;;;1.55;;
11439;SDS011;5776;51.814;4.510;2022-08-03T02:32:11;7.95;;;2.05;;
11439;SDS011;5776;51.814;4.510;2022-08-03T02:34:41;12.20;;;2.40;;
11439;SDS011;5776;51.814;4.510;2022-08-03T02:37:10;13.70;;;2.00;;
11439;SDS011;5776;51.814;4.510;2022-08-03T02:39:38;13.23;;;2.70;;
11439;SDS011;5776;51.814;4.510;2022-08-03T02:42:07;11.10;;;2.10;;
11439;SDS011;5776;51.814;4.510;2022-08-03T02:44:35;9.10;;;1.63;;
11439;SDS011;5776;51.814;4.510;2022-08-03T02:47:03;9.25;;;1.60;;
11439;SDS011;5776;51.814;4.510;2022-08-03T02:49:32;9.07;;;1.60;;
11439;SDS011;5776;51.814;4.510;2022-08-03T02:52:00;6.45;;;1.30;;
11439;SDS011;5776;51.814;4.510;2022-08-03T02:54:27;12.63;;;1.65;;
11439;SDS011;5776;51.814;4.510;2022-08-03T02:56:56;6.78;;;1.55;;
11439;SDS011;5776;51.814;4.510;2022-08-03T02:59:23;13.48;;;2.00;;
11439;SDS011;5776;51.814;4.510;2022-08-03T03:01:50;9.95;;;1.90;;
11439;SDS011;5776;51.814;4.510;2022-08-03T03:04:19;11.88;;;1.92;;
11439;SDS011;5776;51.814;4.510;2022-08-03T03:06:45;9.80;;;1.67;;
11439;SDS011;5776;51.814;4.510;2022-08-03T03:09:13;11.52;;;1.98;;
11439;SDS011;5776;51.814;4.510;2022-08-03T03:11:39;8.98;;;2.05;;
11439;SDS011;5776;51.814;4.510;2022-08-03T03:14:08;6.97;;;1.85;;
11439;SDS011;5776;51.814;4.510;2022-08-03T03:16:35;8.77;;;1.48;;
11439;SDS011;5776;51.814;4.510;2022-08-03T03:19:02;6.43;;;1.50;;
11439;SDS011;5776;51.814;4.510;2022-08-03T03:21:29;9.63;;;1.80;;
11439;SDS011;5776;51.814;4.510;2022-08-03T03:23:56;9.88;;;1.63;;
11439;SDS011;5776;51.814;4.510;2022-08-03T03:26:24;6.72;;;1.45;;
11439;SDS011;5776;51.814;4.510;2022-08-03T03:28:50;8.40;;;1.67;;
11439;SDS011;5776;51.814;4.510;2022-08-03T03:31:17;6.97;;;1.55;;
11439;SDS011;5776;51.814;4.510;2022-08-03T03:33:43;9.88;;;1.70;;
11439;SDS011;5776;51.814;4.510;2022-08-03T03:36:10;7.15;;;1.45;;
11439;SDS011;5776;51.814;4.510;2022-08-03T03:38:36;7.07;;;1.25;;
11439;SDS011;5776;51.814;4.510;2022-08-03T03:41:02;12.48;;;1.40;;
11439;SDS011;5776;51.814;4.510;2022-08-03T03:43:29;13.35;;;1.67;;
11439;SDS011;5776;51.814;4.510;2022-08-03T03:45:56;14.00;;;2.00;;
11439;SDS011;5776;51.814;4.510;2022-08-03T03:48:23;7.95;;;1.65;;
11439;SDS011;5776;51.814;4.510;2022-08-03T03:50:50;8.50;;;1.50;;
11439;SDS011;5776;51.814;4.510;2022-08-03T03:53:17;7.45;;;1.50;;
11439;SDS011;5776;51.814;4.510;2022-08-03T03:55:43;13.85;;;2.33;;
11439;SDS011;5776;51.814;4.510;2022-08-03T03:58:09;10.68;;;1.90;;
11439;SDS011;5776;51.814;4.510;2022-08-03T04:00:35;5.82;;;1.65;;
11439;SDS011;5776;51.814;4.510;2022-08-03T04:03:00;15.13;;;2.33;;
11439;SDS011;5776;51.814;4.510;2022-08-03T04:05:27;13.93;;;2.53;;
11439;SDS011;5776;51.814;4.510;2022-08-03T04:08:12;7.72;;;1.92;;
11439;SDS011;5776;51.814;4.510;2022-08-03T04:11:13;15.80;;;1.92;;
11439;SDS011;5776;51.814;4.510;2022-08-03T04:13:56;14.68;;;2.55;;
11439;SDS011;5776;51.814;4.510;2022-08-03T04:16:26;13.63;;;2.67;;
11439;SDS011;5776;51.814;4.510;2022-08-03T04:18:56;11.38;;;2.55;;
11439;SDS011;5776;51.814;4.510;2022-08-03T04:21:26;11.88;;;2.20;;
11439;SDS011;5776;51.814;4.510;2022-08-03T04:23:55;15.15;;;2.30;;
11439;SDS011;5776;51.814;4.510;2022-08-03T04:26:27;12.30;;;2.60;;
11439;SDS011;5776;51.814;4.510;2022-08-03T04:28:56;12.00;;;2.60;;
11439;SDS011;5776;51.814;4.510;2022-08-03T04:31:23;13.95;;;2.72;;
11439;SDS011;5776;51.814;4.510;2022-08-03T04:33:51;13.75;;;2.47;;
11439;SDS011;5776;51.814;4.510;2022-08-03T04:36:22;15.07;;;2.88;;
11439;SDS011;5776;51.814;4.510;2022-08-03T04:38:59;12.48;;;2.55;;
11439;SDS011;5776;51.814;4.510;2022-08-03T04:41:29;12.18;;;2.65;;
11439;SDS011;5776;51.814;4.510;2022-08-03T04:43:57;16.73;;;2.45;;
11439;SDS011;5776;51.814;4.510;2022-08-03T04:46:30;12.90;;;2.70;;
11439;SDS011;5776;51.814;4.510;2022-08-03T04:48:57;19.70;;;2.60;;
11439;SDS011;5776;51.814;4.510;2022-08-03T04:51:24;15.27;;;2.40;;
11439;SDS011;5776;51.814;4.510;2022-08-03T04:53:50;13.48;;;2.60;;
11439;SDS011;5776;51.814;4.510;2022-08-03T04:56:16;11.05;;;2.05;;
11439;SDS011;5776;51.814;4.510;2022-08-03T04:58:42;15.48;;;2.95;;
11439;SDS011;5776;51.814;4.510;2022-08-03T05:01:09;10.50;;;2.70;;
11439;SDS011;5776;51.814;4.510;2022-08-03T05:03:34;10.23;;;2.33;;
11439;SDS011;5776;51.814;4.510;2022-08-03T05:06:01;21.00;;;2.25;;
11439;SDS011;5776;51.814;4.510;2022-08-03T05:08:27;17.83;;;2.72;;
11439;SDS011;5776;51.814;4.510;2022-08-03T05:10:54;17.20;;;2.45;;
11439;SDS011;5776;51.814;4.510;2022-08-03T05:13:21;17.27;;;3.15;;
11439;SDS011;5776;51.814;4.510;2022-08-03T05:15:47;18.20;;;2.90;;
11439;SDS011;5776;51.814;4.510;2022-08-03T05:18:13;18.70;;;3.30;;
11439;SDS011;5776;51.814;4.510;2022-08-03T05:20:39;12.57;;;2.22;;
11439;SDS011;5776;51.814;4.510;2022-08-03T05:23:06;11.73;;;2.88;;
11439;SDS011;5776;51.814;4.510;2022-08-03T05:25:32;11.73;;;2.67;;
11439;SDS011;5776;51.814;4.510;2022-08-03T05:27:58;18.20;;;3.22;;
11439;SDS011;5776;51.814;4.510;2022-08-03T05:30:24;13.23;;;2.85;;
11439;SDS011;5776;51.814;4.510;2022-08-03T05:32:50;18.58;;;2.60;;
11439;SDS011;5776;51.814;4.510;2022-08-03T05:35:16;14.18;;;2.88;;
11439;SDS011;5776;51.814;4.510;2022-08-03T05:37:42;20.02;;;3.10;;
11439;SDS011;5776;51.814;4.510;2022-08-03T05:40:08;14.73;;;2.95;;
11439;SDS011;5776;51.814;4.510;2022-08-03T05:42:35;12.75;;;3.33;;
11439;SDS011;5776;51.814;4.510;2022-08-03T05:45:03;18.02;;;3.58;;
11439;SDS011;5776;51.814;4.510;2022-08-03T05:47:42;15.55;;;2.70;;
11439;SDS011;5776;51.814;4.510;2022-08-03T05:50:12;21.05;;;3.45;;
11439;SDS011;5776;51.814;4.510;2022-08-03T05:52:39;16.27;;;3.13;;
11439;SDS011;5776;51.814;4.510;2022-08-03T05:55:06;14.48;;;3.13;;
11439;SDS011;5776;51.814;4.510;2022-08-03T05:57:33;24.98;;;2.83;;
11439;SDS011;5776;51.814;4.510;2022-08-03T06:00:00;23.33;;;3.10;;
11439;SDS011;5776;51.814;4.510;2022-08-03T06:02:30;17.45;;;3.60;;
11439;SDS011;5776;51.814;4.510;2022-08-03T06:04:56;18.90;;;3.35;;
11439;SDS011;5776;51.814;4.510;2022-08-03T06:07:22;12.73;;;3.13;;
11439;SDS011;5776;51.814;4.510;2022-08-03T06:09:48;20.88;;;4.43;;
11439;SDS011;5776;51.814;4.510;2022-08-03T06:12:14;17.10;;;4.60;;
11439;SDS011;5776;51.814;4.510;2022-08-03T06:14:40;23.67;;;4.25;;
11439;SDS011;5776;51.814;4.510;2022-08-03T06:17:06;20.98;;;4.85;;
11439;SDS011;5776;51.814;4.510;2022-08-03T06:19:35;18.40;;;5.13;;
11439;SDS011;5776;51.814;4.510;2022-08-03T06:22:01;15.68;;;5.68;;
11439;SDS011;5776;51.814;4.510;2022-08-03T06:24:27;23.05;;;6.50;;
11439;SDS011;5776;51.814;4.510;2022-08-03T06:26:53;17.38;;;7.07;;
11439;SDS011;5776;51.814;4.510;2022-08-03T06:29:19;18.02;;;7.32;;
11439;SDS011;5776;51.814;4.510;2022-08-03T06:31:45;20.45;;;7.15;;
11439;SDS011;5776;51.814;4.510;2022-08-03T06:34:11;17.10;;;7.88;;
11439;SDS011;5776;51.814;4.510;2022-08-03T06:36:37;21.27;;;8.30;;
11439;SDS011;5776;51.814;4.510;2022-08-03T06:39:03;20.70;;;8.15;;
11439;SDS011;5776;51.814;4.510;2022-08-03T06:41:29;21.27;;;8.77;;
11439;SDS011;5776;51.814;4.510;2022-08-03T06:43:56;22.55;;;10.07;;
11439;SDS011;5776;51.814;4.510;2022-08-03T06:46:22;21.17;;;8.95;;
11439;SDS011;5776;51.814;4.510;2022-08-03T06:48:48;26.08;;;9.90;;
11439;SDS011;5776;51.814;4.510;2022-08-03T06:51:14;21.63;;;8.85;;
11439;SDS011;5776;51.814;4.510;2022-08-03T06:53:41;25.45;;;9.45;;
11439;SDS011;5776;51.814;4.510;2022-08-03T06:56:07;16.90;;;8.25;;
11439;SDS011;5776;51.814;4.510;2022-08-03T06:58:33;24.05;;;8.88;;
11439;SDS011;5776;51.814;4.510;2022-08-03T07:00:59;17.95;;;8.80;;
11439;SDS011;5776;51.814;4.510;2022-08-03T07:03:25;16.63;;;8.18;;
11439;SDS011;5776;51.814;4.510;2022-08-03T07:05:52;25.13;;;9.20;;
11439;SDS011;5776;51.814;4.510;2022-08-03T07:08:18;21.75;;;8.95;;
11439;SDS011;5776;51.814;4.510;2022-08-03T07:10:44;22.73;;;8.70;;
11439;SDS011;5776;51.814;4.510;2022-08-03T07:13:10;18.23;;;9.45;;
11439;SDS011;5776;51.814;4.510;2022-08-03T07:15:36;25.73;;;8.95;;
11439;SDS011;5776;51.814;4.510;2022-08-03T07:18:04;22.17;;;9.57;;
11439;SDS011;5776;51.814;4.510;2022-08-03T07:20:31;21.40;;;9.10;;
11439;SDS011;5776;51.814;4.510;2022-08-03T07:22:57;23.52;;;9.35;;
11439;SDS011;5776;51.814;4.510;2022-08-03T07:25:23;17.00;;;8.93;;
11439;SDS011;5776;51.814;4.510;2022-08-03T07:27:49;18.35;;;9.73;;
11439;SDS011;5776;51.814;4.510;2022-08-03T07:30:15;22.17;;;9.77;;
11439;SDS011;5776;51.814;4.510;2022-08-03T07:32:42;29.13;;;10.25;;
11439;SDS011;5776;51.814;4.510;2022-08-03T07:35:09;16.48;;;8.80;;
11439;SDS011;5776;51.814;4.510;2022-08-03T07:37:35;22.63;;;9.15;;
11439;SDS011;5776;51.814;4.510;2022-08-03T07:40:02;15.38;;;8.95;;
11439;SDS011;5776;51.814;4.510;2022-08-03T07:42:29;19.17;;;9.07;;
11439;SDS011;5776;51.814;4.510;2022-08-03T07:44:56;21.95;;;9.35;;
11439;SDS011;5776;51.814;4.510;2022-08-03T07:47:24;24.40;;;9.30;;
11439;SDS011;5776;51.814;4.510;2022-08-03T07:49:53;20.00;;;8.55;;
11439;SDS011;5776;51.814;4.510;2022-08-03T07:52:19;22.02;;;8.25;;
11439;SDS011;5776;51.814;4.510;2022-08-03T07:55:04;21.85;;;7.95;;
11439;SDS011;5776;51.814;4.510;2022-08-03T07:57:32;18.55;;;7.88;;
11439;SDS011;5776;51.814;4.510;2022-08-03T07:59:58;14.00;;;7.53;;
11439;SDS011;5776;51.814;4.510;2022-08-03T08:02:24;19.40;;;6.55;;
11439;SDS011;5776;51.814;4.510;2022-08-03T08:04:50;14.15;;;7.15;;
11439;SDS011;5776;51.814;4.510;2022-08-03T08:07:16;19.60;;;6.47;;
11439;SDS011;5776;51.814;4.510;2022-08-03T08:09:42;18.23;;;6.32;;
11439;SDS011;5776;51.814;4.510;2022-08-03T08:12:08;16.60;;;5.82;;
11439;SDS011;5776;51.814;4.510;2022-08-03T08:14:37;14.48;;;5.53;;
11439;SDS011;5776;51.814;4.510;2022-08-03T08:17:03;22.02;;;6.78;;
11439;SDS011;5776;51.814;4.510;2022-08-03T08:19:29;17.00;;;5.90;;
11439;SDS011;5776;51.814;4.510;2022-08-03T08:21:56;17.05;;;5.13;;
11439;SDS011;5776;51.814;4.510;2022-08-03T08:24:22;19.15;;;5.68;;
11439;SDS011;5776;51.814;4.510;2022-08-03T08:26:48;14.45;;;5.93;;
11439;SDS011;5776;51.814;4.510;2022-08-03T08:29:15;16.20;;;6.10;;
11439;SDS011;5776;51.814;4.510;2022-08-03T08:31:41;13.65;;;5.68;;
11439;SDS011;5776;51.814;4.510;2022-08-03T08:34:07;9.43;;;4.40;;
11439;SDS011;5776;51.814;4.510;2022-08-03T08:36:33;17.98;;;5.82;;
11439;SDS011;5776;51.814;4.510;2022-08-03T08:39:00;16.70;;;5.40;;
11439;SDS011;5776;51.814;4.510;2022-08-03T08:41:26;20.75;;;5.88;;
11439;SDS011;5776;51.814;4.510;2022-08-03T08:43:53;14.68;;;6.10;;
11439;SDS011;5776;51.814;4.510;2022-08-03T08:46:19;17.08;;;6.00;;
11439;SDS011;5776;51.814;4.510;2022-08-03T08:48:47;19.50;;;6.15;;
11439;SDS011;5776;51.814;4.510;2022-08-03T08:51:13;21.17;;;6.05;;
11439;SDS011;5776;51.814;4.510;2022-08-03T08:53:45;12.75;;;5.15;;
11439;SDS011;5776;51.814;4.510;2022-08-03T08:56:15;16.52;;;5.72;;
11439;SDS011;5776;51.814;4.510;2022-08-03T08:58:45;18.08;;;5.95;;
11439;SDS011;5776;51.814;4.510;2022-08-03T09:01:13;15.98;;;4.95;;
11439;SDS011;5776;51.814;4.510;2022-08-03T09:03:42;18.65;;;5.32;;
11439;SDS011;5776;51.814;4.510;2022-08-03T09:06:07;11.82;;;4.75;;
11439;SDS011;5776;51.814;4.510;2022-08-03T09:08:33;16.88;;;5.22;;
11439;SDS011;5776;51.814;4.510;2022-08-03T09:11:00;19.05;;;5.57;;
11439;SDS011;5776;51.814;4.510;2022-08-03T09:13:32;16.65;;;5.38;;
11439;SDS011;5776;51.814;4.510;2022-08-03T09:16:11;17.58;;;5.28;;
11439;SDS011;5776;51.814;4.510;2022-08-03T09:18:40;20.70;;;4.90;;
11439;SDS011;5776;51.814;4.510;2022-08-03T09:21:15;11.52;;;4.75;;
11439;SDS011;5776;51.814;4.510;2022-08-03T09:23:46;14.13;;;4.65;;
11439;SDS011;5776;51.814;4.510;2022-08-03T09:26:25;14.40;;;4.57;;
11439;SDS011;5776;51.814;4.510;2022-08-03T09:31:31;18.30;;;4.97;;
11439;SDS011;5776;51.814;4.510;2022-08-03T09:34:08;17.90;;;4.35;;
11439;SDS011;5776;51.814;4.510;2022-08-03T09:36:40;25.17;;;4.68;;
11439;SDS011;5776;51.814;4.510;2022-08-03T09:39:20;15.38;;;4.45;;
11439;SDS011;5776;51.814;4.510;2022-08-03T09:41:48;11.57;;;3.65;;
11439;SDS011;5776;51.814;4.510;2022-08-03T09:47:02;13.98;;;4.32;;
11439;SDS011;5776;51.814;4.510;2022-08-03T09:49:30;15.85;;;3.83;;
11439;SDS011;5776;51.814;4.510;2022-08-03T09:51:56;15.38;;;4.13;;
11439;SDS011;5776;51.814;4.510;2022-08-03T09:54:29;19.23;;;4.30;;
11439;SDS011;5776;51.814;4.510;2022-08-03T09:56:56;12.57;;;4.70;;
11439;SDS011;5776;51.814;4.510;2022-08-03T09:59:26;11.23;;;4.68;;
11439;SDS011;5776;51.814;4.510;2022-08-03T10:01:54;17.23;;;5.32;;
11439;SDS011;5776;51.814;4.510;2022-08-03T10:04:21;19.05;;;4.53;;
11439;SDS011;5776;51.814;4.510;2022-08-03T10:10:00;17.02;;;4.72;;
11439;SDS011;5776;51.814;4.510;2022-08-03T10:12:27;17.15;;;5.93;;
11439;SDS011;5776;51.814;4.510;2022-08-03T10:14:54;13.80;;;4.32;;
11439;SDS011;5776;51.814;4.510;2022-08-03T10:17:21;17.35;;;4.90;;
11439;SDS011;5776;51.814;4.510;2022-08-03T10:19:47;16.17;;;4.32;;
11439;SDS011;5776;51.814;4.510;2022-08-03T10:22:24;14.23;;;4.07;;
11439;SDS011;5776;51.814;4.510;2022-08-03T10:24:55;14.13;;;5.05;;
11439;SDS011;5776;51.814;4.510;2022-08-03T10:27:30;15.55;;;4.38;;
11439;SDS011;5776;51.814;4.510;2022-08-03T10:29:59;12.00;;;4.10;;
11439;SDS011;5776;51.814;4.510;2022-08-03T10:32:30;14.02;;;4.85;;
11439;SDS011;5776;51.814;4.510;2022-08-03T10:35:02;14.90;;;4.82;;
11439;SDS011;5776;51.814;4.510;2022-08-03T10:37:32;11.95;;;4.03;;
11439;SDS011;5776;51.814;4.510;2022-08-03T10:40:02;22.23;;;3.83;;
11439;SDS011;5776;51.814;4.510;2022-08-03T10:42:29;17.67;;;4.53;;
11439;SDS011;5776;51.814;4.510;2022-08-03T10:45:06;16.77;;;5.55;;
11439;SDS011;5776;51.814;4.510;2022-08-03T10:47:39;18.67;;;5.05;;
11439;SDS011;5776;51.814;4.510;2022-08-03T10:50:06;19.40;;;5.13;;
11439;SDS011;5776;51.814;4.510;2022-08-03T10:52:33;15.85;;;4.78;;
11439;SDS011;5776;51.814;4.510;2022-08-03T10:54:59;12.25;;;3.97;;
11439;SDS011;5776;51.814;4.510;2022-08-03T11:00:13;15.82;;;4.88;;
11439;SDS011;5776;51.814;4.510;2022-08-03T11:05:30;15.88;;;5.30;;
11439;SDS011;5776;51.814;4.510;2022-08-03T11:10:41;18.20;;;5.55;;
11439;SDS011;5776;51.814;4.510;2022-08-03T11:13:08;12.70;;;5.45;;
11439;SDS011;5776;51.814;4.510;2022-08-03T11:15:35;16.67;;;5.57;;
11439;SDS011;5776;51.814;4.510;2022-08-03T11:18:06;14.68;;;5.88;;
11439;SDS011;5776;51.814;4.510;2022-08-03T11:23:12;17.70;;;5.40;;
11439;SDS011;5776;51.814;4.510;2022-08-03T11:28:39;17.20;;;5.28;;
11439;SDS011;5776;51.814;4.510;2022-08-03T11:34:03;17.40;;;5.63;;
11439;SDS011;5776;51.814;4.510;2022-08-03T11:36:32;14.88;;;5.00;;
11439;SDS011;5776;51.814;4.510;2022-08-03T11:39:41;17.20;;;5.45;;
11439;SDS011;5776;51.814;4.510;2022-08-03T11:44:52;22.80;;;5.97;;
11439;SDS011;5776;51.814;4.510;2022-08-03T11:47:20;11.30;;;4.50;;
11439;SDS011;5776;51.814;4.510;2022-08-03T11:49:47;16.60;;;5.32;;
11439;SDS011;5776;51.814;4.510;2022-08-03T11:52:15;15.40;;;4.70;;
11439;SDS011;5776;51.814;4.510;2022-08-03T11:54:42;16.98;;;4.60;;
11439;SDS011;5776;51.814;4.510;2022-08-03T11:57:08;15.48;;;3.67;;
11439;SDS011;5776;51.814;4.510;2022-08-03T11:59:35;12.15;;;3.55;;
11439;SDS011;5776;51.814;4.510;2022-08-03T12:02:08;10.98;;;3.80;;
11439;SDS011;5776;51.814;4.510;2022-08-03T12:04:52;13.70;;;4.10;;
11439;SDS011;5776;51.814;4.510;2022-08-03T12:07:23;12.23;;;3.65;;
11439;SDS011;5776;51.814;4.510;2022-08-03T12:10:08;10.68;;;3.38;;
11439;SDS011;5776;51.814;4.510;2022-08-03T12:12:36;11.07;;;3.80;;
11439;SDS011;5776;51.814;4.510;2022-08-03T12:15:03;11.30;;;3.33;;
11439;SDS011;5776;51.814;4.510;2022-08-03T12:19:59;15.07;;;3.70;;
11439;SDS011;5776;51.814;4.510;2022-08-03T12:22:30;14.60;;;2.90;;
11439;SDS011;5776;51.814;4.510;2022-08-03T12:25:00;10.02;;;2.85;;
11439;SDS011;5776;51.814;4.510;2022-08-03T12:27:26;11.13;;;3.33;;
11439;SDS011;5776;51.814;4.510;2022-08-03T12:29:54;13.27;;;2.67;;
11439;SDS011;5776;51.814;4.510;2022-08-03T12:32:22;12.63;;;2.45;;
11439;SDS011;5776;51.814;4.510;2022-08-03T12:34:50;7.88;;;2.25;;
11439;SDS011;5776;51.814;4.510;2022-08-03T12:37:20;13.77;;;2.92;;
11439;SDS011;5776;51.814;4.510;2022-08-03T12:39:50;7.28;;;2.38;;
11439;SDS011;5776;51.814;4.510;2022-08-03T12:42:18;12.15;;;2.72;;
11439;SDS011;5776;51.814;4.510;2022-08-03T12:44:44;8.55;;;2.40;;
11439;SDS011;5776;51.814;4.510;2022-08-03T12:47:13;12.70;;;3.10;;
11439;SDS011;5776;51.814;4.510;2022-08-03T12:49:44;10.32;;;2.50;;
11439;SDS011;5776;51.814;4.510;2022-08-03T12:52:11;7.85;;;2.25;;
11439;SDS011;5776;51.814;4.510;2022-08-03T12:54:37;10.65;;;1.77;;
11439;SDS011;5776;51.814;4.510;2022-08-03T12:57:04;10.38;;;2.00;;
11439;SDS011;5776;51.814;4.510;2022-08-03T12:59:32;6.20;;;1.85;;
11439;SDS011;5776;51.814;4.510;2022-08-03T13:02:02;9.48;;;2.38;;
11439;SDS011;5776;51.814;4.510;2022-08-03T13:04:32;11.45;;;2.22;;
11439;SDS011;5776;51.814;4.510;2022-08-03T13:07:02;6.53;;;1.80;;
11439;SDS011;5776;51.814;4.510;2022-08-03T13:09:40;8.73;;;2.30;;
11439;SDS011;5776;51.814;4.510;2022-08-03T13:12:10;13.35;;;2.30;;
11439;SDS011;5776;51.814;4.510;2022-08-03T13:14:36;12.40;;;2.10;;
11439;SDS011;5776;51.814;4.510;2022-08-03T13:17:03;11.35;;;1.85;;
11439;SDS011;5776;51.814;4.510;2022-08-03T13:19:31;4.97;;;1.67;;
11439;SDS011;5776;51.814;4.510;2022-08-03T13:21:58;7.80;;;1.95;;
11439;SDS011;5776;51.814;4.510;2022-08-03T13:24:24;5.80;;;1.80;;
11439;SDS011;5776;51.814;4.510;2022-08-03T13:26:50;6.25;;;1.60;;
11439;SDS011;5776;51.814;4.510;2022-08-03T13:29:16;7.75;;;2.03;;
11439;SDS011;5776;51.814;4.510;2022-08-03T13:31:42;7.18;;;1.95;;
11439;SDS011;5776;51.814;4.510;2022-08-03T13:34:08;7.40;;;1.70;;
11439;SDS011;5776;51.814;4.510;2022-08-03T13:36:34;14.00;;;2.10;;
11439;SDS011;5776;51.814;4.510;2022-08-03T13:39:00;8.05;;;1.63;;
11439;SDS011;5776;51.814;4.510;2022-08-03T13:41:26;5.80;;;1.50;;
11439;SDS011;5776;51.814;4.510;2022-08-03T13:43:52;7.07;;;1.67;;
11439;SDS011;5776;51.814;4.510;2022-08-03T13:46:20;11.30;;;1.70;;
11439;SDS011;5776;51.814;4.510;2022-08-03T13:48:47;3.75;;;1.40;;
11439;SDS011;5776;51.814;4.510;2022-08-03T13:51:13;8.18;;;1.77;;
11439;SDS011;5776;51.814;4.510;2022-08-03T13:53:39;5.55;;;1.50;;
11439;SDS011;5776;51.814;4.510;2022-08-03T13:56:05;6.78;;;1.70;;
11439;SDS011;5776;51.814;4.510;2022-08-03T13:58:31;17.02;;;2.10;;
11439;SDS011;5776;51.814;4.510;2022-08-03T14:00:57;5.85;;;1.85;;
11439;SDS011;5776;51.814;4.510;2022-08-03T14:03:23;11.55;;;2.58;;
11439;SDS011;5776;51.814;4.510;2022-08-03T14:05:49;7.47;;;1.92;;
11439;SDS011;5776;51.814;4.510;2022-08-03T14:08:15;10.95;;;1.92;;
11439;SDS011;5776;51.814;4.510;2022-08-03T14:10:42;8.98;;;2.00;;
11439;SDS011;5776;51.814;4.510;2022-08-03T14:13:10;12.73;;;1.90;;
11439;SDS011;5776;51.814;4.510;2022-08-03T14:15:37;7.30;;;1.60;;
11439;SDS011;5776;51.814;4.510;2022-08-03T14:18:03;11.70;;;2.30;;
11439;SDS011;5776;51.814;4.510;2022-08-03T14:20:28;11.73;;;2.05;;
11439;SDS011;5776;51.814;4.510;2022-08-03T14:22:54;11.60;;;2.20;;
11439;SDS011;5776;51.814;4.510;2022-08-03T14:25:20;8.95;;;1.85;;
11439;SDS011;5776;51.814;4.510;2022-08-03T14:27:46;8.45;;;1.95;;
11439;SDS011;5776;51.814;4.510;2022-08-03T14:30:12;9.50;;;1.85;;
11439;SDS011;5776;51.814;4.510;2022-08-03T14:32:39;4.15;;;1.33;;
11439;SDS011;5776;51.814;4.510;2022-08-03T14:35:08;9.50;;;1.92;;
11439;SDS011;5776;51.814;4.510;2022-08-03T14:37:34;5.97;;;1.60;;
11439;SDS011;5776;51.814;4.510;2022-08-03T14:40:00;8.18;;;1.92;;
11439;SDS011;5776;51.814;4.510;2022-08-03T14:42:26;7.15;;;1.40;;
11439;SDS011;5776;51.814;4.510;2022-08-03T14:44:55;5.75;;;1.52;;
11439;SDS011;5776;51.814;4.510;2022-08-03T14:47:21;8.80;;;2.00;;
11439;SDS011;5776;51.814;4.510;2022-08-03T14:49:47;7.15;;;1.88;;
11439;SDS011;5776;51.814;4.510;2022-08-03T14:52:13;10.68;;;2.10;;
11439;SDS011;5776;51.814;4.510;2022-08-03T14:54:39;4.60;;;1.80;;
11439;SDS011;5776;51.814;4.510;2022-08-03T14:57:05;7.65;;;1.33;;
11439;SDS011;5776;51.814;4.510;2022-08-03T14:59:31;14.50;;;1.80;;
11439;SDS011;5776;51.814;4.510;2022-08-03T15:01:57;8.07;;;1.40;;
11439;SDS011;5776;51.814;4.510;2022-08-03T15:04:23;8.50;;;1.58;;
11439;SDS011;5776;51.814;4.510;2022-08-03T15:06:49;9.80;;;1.80;;
11439;SDS011;5776;51.814;4.510;2022-08-03T15:09:15;6.82;;;1.70;;
11439;SDS011;5776;51.814;4.510;2022-08-03T15:11:41;8.77;;;1.45;;
11439;SDS011;5776;51.814;4.510;2022-08-03T15:14:08;6.45;;;1.77;;
11439;SDS011;5776;51.814;4.510;2022-08-03T15:16:33;8.07;;;1.90;;
11439;SDS011;5776;51.814;4.510;2022-08-03T15:18:59;5.70;;;1.38;;
11439;SDS011;5776;51.814;4.510;2022-08-03T15:21:25;11.50;;;1.65;;
11439;SDS011;5776;51.814;4.510;2022-08-03T15:23:51;8.25;;;1.52;;
11439;SDS011;5776;51.814;4.510;2022-08-03T15:26:18;8.23;;;1.40;;
11439;SDS011;5776;51.814;4.510;2022-08-03T15:28:44;5.85;;;1.60;;
11439;SDS011;5776;51.814;4.510;2022-08-03T15:31:10;10.90;;;3.42;;
11439;SDS011;5776;51.814;4.510;2022-08-03T15:33:36;7.13;;;1.70;;
11439;SDS011;5776;51.814;4.510;2022-08-03T15:36:03;3.88;;;1.40;;
11439;SDS011;5776;51.814;4.510;2022-08-03T15:38:29;11.48;;;1.65;;
11439;SDS011;5776;51.814;4.510;2022-08-03T15:40:55;9.35;;;1.80;;